Time;durP1;ratioP1;P1;durP2;ratioP2;P2;SDS_P1;SDS_P2;PMS_P1;PMS_P2;Temp;Humidity;BMP_temperature;BMP_pressure;BME280_temperature;BME280_humidity;BME280_pressure;Samples;Min_cycle;Max_cycle;Signal;HPM_P1;HPM_P2
2022/04/06 00:00:48;;;;;;;36.33;17.90;;;8.40;99.90;;;;;;5011989;28;20081;-86
2022/04/06 00:03:19;;;;;;;32.93;18.03;;;8.30;99.90;;;;;;5012137;28;20565;-86
2022/04/06 00:05:51;;;;;;;33.03;17.53;;;8.50;99.90;;;;;;5013621;28;20395;-86
2022/04/06 00:08:16;;;;;;;32.03;16.90;;;8.60;99.90;;;;;;5048770;28;20096;-87
2022/04/06 00:10:52;;;;;;;38.20;16.63;;;8.20;99.90;;;;;;5014292;28;20049;-86
2022/04/06 00:13:18;;;;;;;36.42;17.92;;;8.60;99.90;;;;;;5016832;28;20049;-86
2022/04/06 00:15:43;;;;;;;36.67;16.50;;;8.30;99.90;;;;;;5015895;28;20374;-86
2022/04/06 00:18:09;;;;;;;32.73;16.07;;;9.30;99.90;;;;;;5014855;28;20042;-86
2022/04/06 00:20:35;;;;;;;33.10;16.63;;;9.50;99.90;;;;;;5015924;28;20046;-85
2022/04/06 00:23:01;;;;;;;36.00;16.90;;;8.30;99.90;;;;;;5014528;28;20042;-86
2022/04/06 00:25:32;;;;;;;34.80;16.23;;;8.30;99.90;;;;;;5015313;28;20124;-86
2022/04/06 00:27:58;;;;;;;30.93;16.07;;;8.90;99.90;;;;;;5015994;28;20045;-87
2022/04/06 00:30:27;;;;;;;32.53;15.30;;;8.30;99.90;;;;;;5014549;28;20058;-86
2022/04/06 00:32:53;;;;;;;29.93;15.87;;;8.40;99.90;;;;;;5014346;28;20433;-86
2022/04/06 00:35:45;;;;;;;31.20;15.55;;;8.90;99.90;;;;;;5014875;28;20081;-86
2022/04/06 00:38:14;;;;;;;32.63;14.83;;;8.30;99.90;;;;;;4996111;28;20137;-86
2022/04/06 00:40:40;;;;;;;30.40;14.53;;;8.30;99.90;;;;;;5016144;28;20424;-86
2022/04/06 00:43:13;;;;;;;31.77;15.77;;;9.00;99.90;;;;;;5014455;28;20124;-86
2022/04/06 00:45:40;;;;;;;32.17;15.30;;;8.50;99.90;;;;;;5029416;23;20042;-86
2022/04/06 00:48:07;;;;;;;33.13;14.13;;;9.30;99.90;;;;;;4997779;28;20042;-86
2022/04/06 00:50:34;;;;;;;32.80;14.33;;;8.50;99.90;;;;;;5031126;28;20049;-86
2022/04/06 00:53:00;;;;;;;30.80;14.47;;;8.30;99.90;;;;;;4997760;28;20057;-86
2022/04/06 00:55:44;;;;;;;32.57;15.13;;;8.50;99.90;;;;;;5015383;28;20050;-86
2022/04/06 00:58:13;;;;;;;28.30;12.80;;;8.60;99.90;;;;;;5015427;28;20046;-86
2022/04/06 01:00:39;;;;;;;30.45;14.25;;;8.20;99.90;;;;;;5015133;28;20053;-86
2022/04/06 01:03:05;;;;;;;33.37;14.10;;;8.30;99.90;;;;;;4997418;28;20118;-86
2022/04/06 01:05:30;;;;;;;28.73;14.13;;;8.50;99.90;;;;;;4997772;28;20053;-86
2022/04/06 01:08:00;;;;;;;27.57;13.47;;;8.10;99.90;;;;;;5030396;28;20060;-86
2022/04/06 01:10:25;;;;;;;28.03;12.80;;;8.30;99.90;;;;;;5015054;28;20477;-86
2022/04/06 01:12:51;;;;;;;26.20;13.67;;;8.50;99.90;;;;;;4997069;28;20100;-86
2022/04/06 01:15:17;;;;;;;27.07;12.27;;;8.30;99.90;;;;;;5015595;28;20057;-86
2022/04/06 01:17:44;;;;;;;26.67;12.57;;;7.20;99.90;;;;;;5015267;28;20050;-85
2022/04/06 01:20:13;;;;;;;26.73;12.13;;;9.40;99.90;;;;;;5014409;28;20548;-86
2022/04/06 01:22:39;;;;;;;25.40;12.77;;;8.50;99.90;;;;;;5015543;28;20092;-87
2022/04/06 01:25:06;;;;;;;26.17;12.97;;;9.10;99.90;;;;;;5014884;28;20463;-86
2022/04/06 01:27:41;;;;;;;24.97;11.43;;;8.40;99.90;;;;;;5014147;28;20041;-87
2022/04/06 01:30:07;;;;;;;26.37;12.00;;;7.40;99.90;;;;;;4996938;28;20048;-86
2022/04/06 01:32:35;;;;;;;28.47;11.27;;;8.50;99.90;;;;;;5014928;28;20105;-86
2022/04/06 01:35:00;;;;;;;27.47;11.83;;;8.40;99.90;;;;;;5013933;28;20578;-86
2022/04/06 01:37:28;;;;;;;29.60;11.43;;;8.20;99.90;;;;;;5014755;28;20133;-86
2022/04/06 01:40:35;;;;;;;28.33;11.67;;;8.20;99.90;;;;;;5012538;28;20405;-86
2022/04/06 01:43:01;;;;;;;23.27;11.93;;;9.10;99.90;;;;;;5014145;28;20053;-86
2022/04/06 01:45:29;;;;;;;27.63;11.13;;;8.10;99.90;;;;;;5030250;28;20054;-86
2022/04/06 01:47:55;;;;;;;26.77;10.53;;;8.00;99.90;;;;;;5014498;28;20042;-86
2022/04/06 01:53:05;;;;;;;24.67;10.13;;;8.10;99.90;;;;;;5014755;28;20054;-85
2022/04/06 01:55:30;;;;;;;24.60;10.33;;;8.30;99.90;;;;;;4995812;28;20417;-86
2022/04/06 01:57:56;;;;;;;25.87;10.87;;;8.10;99.90;;;;;;4996629;28;20049;-86
2022/04/06 02:00:22;;;;;;;26.30;10.80;;;8.70;99.90;;;;;;5014286;28;20046;-86
2022/04/06 02:02:51;;;;;;;29.47;10.70;;;8.20;99.90;;;;;;4995747;28;20057;-86
2022/04/06 02:05:18;;;;;;;22.30;9.47;;;8.20;99.90;;;;;;5014338;28;20041;-86
2022/04/06 02:07:48;;;;;;;29.73;10.37;;;8.40;99.90;;;;;;5013855;28;20203;-87
2022/04/06 02:10:15;;;;;;;24.50;10.17;;;7.40;99.90;;;;;;5013619;28;20042;-86
2022/04/06 02:12:41;;;;;;;24.37;8.70;;;8.20;99.90;;;;;;4996573;28;20483;-86
2022/04/06 02:15:18;;;;;;;23.50;9.13;;;8.20;99.90;;;;;;5014072;28;20075;-86
2022/04/06 02:17:54;;;;;;;25.43;9.73;;;8.50;99.90;;;;;;4996054;28;20096;-86
2022/04/06 02:20:20;;;;;;;25.60;9.40;;;9.00;99.90;;;;;;5013971;28;20133;-86
2022/04/06 02:22:46;;;;;;;23.97;9.53;;;7.60;99.90;;;;;;4996797;28;20042;-85
2022/04/06 02:25:13;;;;;;;25.13;8.83;;;8.10;99.90;;;;;;4995944;28;20049;-86
2022/04/06 02:27:52;;;;;;;24.70;9.10;;;8.90;99.90;;;;;;4996442;28;20084;-85
2022/04/06 02:30:19;;;;;;;22.17;8.37;;;8.40;99.90;;;;;;5013241;28;20120;-86
2022/04/06 02:32:45;;;;;;;23.37;8.90;;;8.90;99.90;;;;;;4996119;28;20054;-86
2022/04/06 02:35:12;;;;;;;21.37;7.87;;;8.70;99.90;;;;;;5013689;28;20401;-85
2022/04/06 02:37:41;;;;;;;21.93;8.27;;;9.10;99.90;;;;;;4995912;28;20145;-85
2022/04/06 02:40:08;;;;;;;24.52;7.80;;;9.10;99.90;;;;;;4995693;28;20045;-87
2022/04/06 02:42:34;;;;;;;19.40;7.47;;;8.40;99.90;;;;;;4995978;28;20057;-86
2022/04/06 02:44:59;;;;;;;19.87;8.00;;;8.30;99.90;;;;;;5012839;28;20409;-86
2022/04/06 02:47:25;;;;;;;21.47;8.00;;;8.20;99.90;;;;;;5013835;28;20042;-86
2022/04/06 02:49:51;;;;;;;20.30;7.60;;;8.40;99.90;;;;;;5013818;28;20393;-86
2022/04/06 02:52:17;;;;;;;19.80;7.60;;;8.50;99.90;;;;;;5013659;28;20049;-86
2022/04/06 02:54:42;;;;;;;19.30;7.33;;;8.50;99.90;;;;;;5013473;28;20155;-86
2022/04/06 02:57:08;;;;;;;22.40;8.23;;;8.20;99.90;;;;;;5013315;28;20081;-87
2022/04/06 02:59:34;;;;;;;20.60;7.43;;;8.30;99.90;;;;;;5027978;28;20671;-86
2022/04/06 03:01:59;;;;;;;20.03;7.13;;;8.20;99.90;;;;;;5013384;28;20042;-85
2022/04/06 03:04:25;;;;;;;19.67;7.23;;;9.30;99.90;;;;;;5012520;28;20050;-86
2022/04/06 03:06:50;;;;;;;25.73;7.40;;;8.30;99.90;;;;;;4995057;28;20050;-86
2022/04/06 03:09:16;;;;;;;21.97;7.83;;;8.10;99.90;;;;;;5013342;28;20034;-86
2022/04/06 03:11:51;;;;;;;22.93;8.03;;;8.30;99.90;;;;;;5013025;28;20038;-86
2022/04/06 03:14:16;;;;;;;22.57;8.40;;;9.40;99.90;;;;;;5012942;28;20129;-86
2022/04/06 03:16:42;;;;;;;24.53;9.33;;;9.10;99.90;;;;;;5013486;28;20129;-86
2022/04/06 03:19:08;;;;;;;26.77;9.20;;;8.40;99.90;;;;;;4995430;28;20509;-86
2022/04/06 03:21:33;;;;;;;22.50;9.33;;;8.60;99.90;;;;;;5012749;28;20050;-86
2022/04/06 03:23:59;;;;;;;21.70;9.20;;;8.40;99.90;;;;;;5013063;28;20381;-86
2022/04/06 03:26:24;;;;;;;31.47;9.90;;;9.50;99.90;;;;;;5011811;28;20497;-85
2022/04/06 03:28:50;;;;;;;22.37;9.77;;;8.60;99.90;;;;;;4993591;28;20043;-86
2022/04/06 03:31:16;;;;;;;24.03;10.23;;;8.40;99.90;;;;;;5013283;28;20046;-86
2022/04/06 03:33:41;;;;;;;25.27;10.67;;;9.50;99.90;;;;;;5012681;28;20037;-86
2022/04/06 03:36:08;;;;;;;29.83;11.00;;;8.60;99.90;;;;;;4995335;28;20139;-86
2022/04/06 03:38:34;;;;;;;23.60;10.90;;;8.40;99.90;;;;;;4995178;28;20077;-86
2022/04/06 03:40:59;;;;;;;28.53;10.70;;;9.60;99.90;;;;;;4992956;28;20085;-86
2022/04/06 03:43:33;;;;;;;27.30;11.20;;;9.40;99.90;;;;;;5012982;28;20038;-86
2022/04/06 03:45:59;;;;;;;30.50;11.97;;;8.60;99.90;;;;;;4994877;28;20081;-85
2022/04/06 03:48:24;;;;;;;31.63;12.43;;;8.60;99.90;;;;;;5012411;28;20464;-86
2022/04/06 03:50:50;;;;;;;27.30;12.83;;;10.10;99.90;;;;;;4994933;28;20041;-86
2022/04/06 03:53:17;;;;;;;25.40;12.13;;;8.60;99.90;;;;;;4995439;28;20080;-86
2022/04/06 03:55:42;;;;;;;26.33;12.33;;;8.60;99.90;;;;;;5012093;28;20042;-85
2022/04/06 03:58:08;;;;;;;26.95;11.65;;;8.90;99.90;;;;;;4995186;28;20534;-86
2022/04/06 04:00:34;;;;;;;30.43;12.53;;;9.70;99.90;;;;;;5012887;28;20061;-86
2022/04/06 04:03:00;;;;;;;25.13;12.43;;;8.80;99.90;;;;;;5011076;28;20060;-85
2022/04/06 04:05:26;;;;;;;25.93;12.53;;;8.10;99.90;;;;;;5027570;28;20054;-85
2022/04/06 04:07:51;;;;;;;31.30;12.20;;;9.00;99.90;;;;;;5012199;28;20046;-87
2022/04/06 04:10:19;;;;;;;28.87;12.93;;;9.10;99.90;;;;;;5027667;28;20049;-86
2022/04/06 04:12:45;;;;;;;31.40;12.77;;;10.00;99.90;;;;;;4994599;28;20089;-86
2022/04/06 04:15:11;;;;;;;25.53;11.87;;;8.50;99.90;;;;;;5012453;28;20136;-86
2022/04/06 04:17:36;;;;;;;27.57;12.43;;;8.50;99.90;;;;;;4994925;28;20500;-86
2022/04/06 04:20:02;;;;;;;29.23;12.40;;;8.90;99.90;;;;;;5027346;28;20978;-85
2022/04/06 04:22:29;;;;;;;23.00;10.97;;;8.70;99.90;;;;;;5012359;28;20034;-85
2022/04/06 04:25:05;;;;;;;24.83;11.63;;;8.70;99.90;;;;;;5011698;28;20037;-86
2022/04/06 04:27:31;;;;;;;25.67;11.07;;;8.70;99.90;;;;;;4994807;28;20046;-86
2022/04/06 04:29:58;;;;;;;29.30;11.17;;;8.60;99.90;;;;;;4994186;28;20052;-86
2022/04/06 04:32:23;;;;;;;25.67;11.77;;;8.70;99.90;;;;;;5012865;28;20065;-87
2022/04/06 04:34:49;;;;;;;29.77;11.70;;;8.40;99.90;;;;;;5011889;28;20465;-86
2022/04/06 04:37:14;;;;;;;23.30;10.67;;;8.70;99.90;;;;;;4993967;28;20441;-86
2022/04/06 04:39:40;;;;;;;25.90;11.45;;;8.40;99.90;;;;;;5012405;28;20045;-85
2022/04/06 04:42:06;;;;;;;20.67;10.60;;;9.20;99.90;;;;;;5027023;28;20056;-86
2022/04/06 04:44:32;;;;;;;24.87;10.07;;;8.60;99.90;;;;;;5011628;28;20046;-85
2022/04/06 04:46:58;;;;;;;22.63;10.23;;;8.60;99.90;;;;;;5012378;28;20101;-86
2022/04/06 04:49:29;;;;;;;29.10;10.83;;;8.50;99.90;;;;;;5011997;28;20108;-85
2022/04/06 04:52:00;;;;;;;23.77;10.37;;;9.80;99.90;;;;;;4994545;28;20045;-85
2022/04/06 04:54:26;;;;;;;22.40;9.85;;;8.20;99.90;;;;;;5015933;28;20042;-86
2022/04/06 04:56:52;;;;;;;22.97;10.20;;;8.40;99.90;;;;;;4997570;28;20096;-86
2022/04/06 04:59:18;;;;;;;22.33;9.33;;;8.00;99.90;;;;;;5030967;28;20053;-86
2022/04/06 05:01:44;;;;;;;22.20;9.20;;;8.60;99.90;;;;;;5030523;28;20077;-86
2022/04/06 05:04:09;;;;;;;20.37;8.87;;;8.50;99.90;;;;;;4997830;28;20073;-85
2022/04/06 05:06:38;;;;;;;22.37;9.93;;;8.50;99.90;;;;;;4997627;28;20042;-85
2022/04/06 05:09:04;;;;;;;24.43;9.90;;;8.30;99.90;;;;;;4998001;28;20049;-85
2022/04/06 05:11:30;;;;;;;22.37;9.70;;;9.10;99.90;;;;;;5015150;28;20164;-85
2022/04/06 05:13:55;;;;;;;21.05;8.70;;;8.40;99.90;;;;;;5014617;28;20053;-85
2022/04/06 05:16:21;;;;;;;19.13;8.57;;;8.50;99.90;;;;;;5015728;28;20041;-86
2022/04/06 05:18:56;;;;;;;25.33;10.13;;;9.00;99.90;;;;;;4997329;28;20045;-86
2022/04/06 05:21:21;;;;;;;23.03;9.50;;;9.30;99.90;;;;;;4997321;28;20053;-85
2022/04/06 05:23:47;;;;;;;21.37;9.60;;;8.40;99.90;;;;;;5015354;28;20046;-86
2022/04/06 05:26:12;;;;;;;18.80;8.53;;;8.50;99.90;;;;;;4996889;28;20042;-86
2022/04/06 05:28:38;;;;;;;22.57;8.77;;;8.40;99.90;;;;;;5015095;28;20049;-86
2022/04/06 05:31:04;;;;;;;25.73;10.10;;;8.20;99.90;;;;;;5014883;28;20416;-86
2022/04/06 05:33:30;;;;;;;21.83;8.73;;;8.60;99.90;;;;;;5014660;28;20477;-86
2022/04/06 05:35:55;;;;;;;24.73;13.48;;;8.40;99.90;;;;;;5015006;28;20042;-86
2022/04/06 05:38:21;;;;;;;24.75;10.52;;;9.50;99.90;;;;;;5015199;28;20045;-85
2022/04/06 05:40:47;;;;;;;27.80;14.15;;;8.40;99.90;;;;;;5013519;28;20129;-86
2022/04/06 05:43:12;;;;;;;17.20;7.57;;;8.50;99.90;;;;;;5015017;28;20493;-86
2022/04/06 05:45:38;;;;;;;24.37;12.87;;;8.60;99.90;;;;;;5014711;28;20108;-86
2022/04/06 05:48:05;;;;;;;22.37;11.30;;;8.60;99.90;;;;;;5014154;28;20050;-86
2022/04/06 05:50:30;;;;;;;23.93;9.37;;;8.50;99.90;;;;;;4997742;28;20052;-86
2022/04/06 05:52:56;;;;;;;19.53;7.83;;;8.50;99.90;;;;;;4998142;28;20054;-86
2022/04/06 05:55:22;;;;;;;17.47;6.63;;;8.20;99.90;;;;;;4997844;28;20042;-85
2022/04/06 05:57:47;;;;;;;19.00;7.00;;;8.50;99.90;;;;;;4997617;28;20125;-85
2022/04/06 06:00:14;;;;;;;19.80;7.97;;;8.40;99.90;;;;;;5013023;28;20145;-86
2022/04/06 06:02:40;;;;;;;19.57;6.10;;;8.60;99.90;;;;;;5014107;28;20388;-86
2022/04/06 06:05:06;;;;;;;15.60;6.40;;;8.60;99.90;;;;;;4996201;28;20037;-86
2022/04/06 06:07:32;;;;;;;12.67;5.17;;;8.60;99.90;;;;;;5012862;28;20061;-86
2022/04/06 06:09:58;;;;;;;17.20;7.27;;;8.70;99.90;;;;;;5013736;28;20081;-86
2022/04/06 06:12:39;;;;;;;16.43;5.40;;;8.50;99.90;;;;;;4995148;28;20057;-86
2022/04/06 06:15:06;;;;;;;17.17;5.40;;;9.80;99.90;;;;;;4996511;28;20045;-86
2022/04/06 06:17:40;;;;;;;14.93;5.07;;;8.70;99.90;;;;;;5013761;28;20081;-86
2022/04/06 06:20:06;;;;;;;19.37;7.63;;;8.50;99.90;;;;;;5013862;28;20482;-86
2022/04/06 06:22:32;;;;;;;11.97;5.00;;;8.70;99.90;;;;;;5013397;28;20325;-86
2022/04/06 06:25:04;;;;;;;16.57;5.93;;;8.70;99.90;;;;;;5014094;28;20096;-87
2022/04/06 06:27:37;;;;;;;16.10;5.57;;;8.70;99.90;;;;;;5015078;28;20053;-93
2022/04/06 06:30:03;;;;;;;17.47;6.20;;;8.80;99.90;;;;;;5047741;23;20073;-92
2022/04/06 06:32:31;;;;;;;12.40;4.07;;;7.90;99.90;;;;;;5013715;28;20050;-93
2022/04/06 06:34:57;;;;;;;39.73;21.83;;;8.80;99.90;;;;;;5014469;28;20073;-92
2022/04/06 06:37:25;;;;;;;11.93;4.03;;;9.40;99.90;;;;;;5014408;28;20088;-94
2022/04/06 06:39:54;;;;;;;10.50;3.40;;;7.80;99.90;;;;;;5019139;28;20389;-92
2022/04/06 06:42:38;;;;;;;11.50;4.43;;;8.50;99.90;;;;;;5012676;28;20058;-93
2022/04/06 06:45:11;;;;;;;14.20;5.57;;;8.50;99.90;;;;;;5011976;28;20037;-92
2022/04/06 06:47:37;;;;;;;14.70;5.13;;;8.90;99.90;;;;;;5013100;28;20050;-92
2022/04/06 06:50:07;;;;;;;13.90;4.50;;;7.70;99.90;;;;;;5012040;28;20056;-90
2022/04/06 06:52:51;;;;;;;18.70;7.07;;;8.80;99.90;;;;;;5012256;28;20042;-94
2022/04/06 06:55:18;;;;;;;17.83;9.33;;;8.30;99.90;;;;;;4996161;28;20108;-91
2022/04/06 06:57:44;;;;;;;15.93;4.72;;;8.70;99.90;;;;;;4976732;28;20769;-90
2022/04/06 07:00:38;;;;;;;13.03;3.97;;;8.70;99.90;;;;;;5009291;28;20049;-92
2022/04/06 07:03:07;;;;;;;13.00;3.45;;;8.60;99.90;;;;;;5005690;28;20042;-92
2022/04/06 07:05:32;;;;;;;11.57;3.35;;;8.60;99.90;;;;;;5001066;28;20046;-91
2022/04/06 07:08:01;;;;;;;11.87;3.00;;;8.20;99.90;;;;;;4976014;28;20105;-89
2022/04/06 07:10:29;;;;;;;12.30;3.53;;;8.40;99.90;;;;;;4991857;28;20046;-88
2022/04/06 07:12:56;;;;;;;11.37;3.83;;;7.60;99.90;;;;;;4993109;28;20134;-89
2022/04/06 07:15:25;;;;;;;13.57;4.70;;;8.50;99.90;;;;;;4993706;28;20065;-89
2022/04/06 07:18:07;;;;;;;11.90;3.57;;;7.60;99.90;;;;;;4999960;28;20092;-91
2022/04/06 07:20:45;;;;;;;12.07;3.67;;;8.70;99.90;;;;;;4992627;28;20056;-92
2022/04/06 07:23:11;;;;;;;13.10;4.73;;;8.50;99.90;;;;;;5048501;28;20432;-95
2022/04/06 07:25:40;;;;;;;11.57;3.17;;;8.20;99.90;;;;;;5035323;28;20045;-96
2022/04/06 07:28:07;;;;;;;13.83;3.30;;;9.10;99.90;;;;;;5005172;28;20100;-96
2022/04/06 07:30:35;;;;;;;13.77;3.93;;;9.50;99.90;;;;;;5021594;28;20404;-94
2022/04/06 07:33:01;;;;;;;11.40;3.57;;;7.90;99.90;;;;;;5026822;28;20046;-96
2022/04/06 07:35:31;;;;;;;11.97;3.70;;;8.40;99.90;;;;;;5030642;28;20048;-96
2022/04/06 07:44:10;;;;;;;15.80;5.47;;;8.80;99.90;;;;;;5269741;23;20464;-96
2022/04/06 07:46:36;;;;;;;13.87;4.50;;;8.40;99.90;;;;;;4999472;28;20050;-94
2022/04/06 07:49:15;;;;;;;11.63;4.05;;;8.60;99.90;;;;;;5257715;23;20149;-93
2022/04/06 07:51:42;;;;;;;13.45;4.57;;;8.80;99.90;;;;;;5444054;23;20060;-96
2022/04/06 07:54:19;;;;;;;12.02;4.65;;;8.80;99.90;;;;;;5051820;28;20045;-94
2022/04/06 07:56:47;;;;;;;13.20;4.90;;;8.40;99.90;;;;;;5046697;28;20450;-92
2022/04/06 08:02:22;;;;;;;15.67;5.73;;;8.70;99.90;;;;;;5037339;28;20049;-94
2022/04/06 08:26:58;;;;;;;;;;;;;;;;;;;;;
2022/04/06 08:30:54;;;;;;;19.07;8.00;;;8.90;99.90;;;;;;5060454;28;20053;-91
2022/04/06 08:33:26;;;;;;;37.80;19.65;;;8.90;99.90;;;;;;5061365;28;20135;-95
2022/04/06 09:01:50;;;;;;;14.45;7.65;;;9.60;99.90;;;;;;5213608;23;20049;-94
2022/04/06 09:08:07;;;;;;;13.63;6.82;;;9.60;99.90;;;;;;3983204;23;20026;31
2022/04/06 09:10:37;;;;;;;14.13;6.47;;;9.60;99.90;;;;;;4936706;29;20196;-92
2022/04/06 09:13:13;;;;;;;13.93;6.03;;;9.50;99.90;;;;;;4945755;29;20063;-92
2022/04/06 09:15:50;;;;;;;13.82;5.60;;;9.50;99.90;;;;;;4953919;29;20051;-95
2022/04/06 09:22:07;;;;;;;15.40;6.35;;;9.60;99.90;;;;;;4939700;29;20075;-96
2022/04/06 09:40:03;;;;;;;;;;;;;;;;;;;;;
2022/04/06 09:53:43;;;;;;;14.52;4.38;;;8.80;99.90;;;;;;4905782;28;20418;-93
2022/04/06 09:56:09;;;;;;;14.15;4.63;;;9.30;99.90;;;;;;4954405;28;20051;-92
2022/04/06 09:58:37;;;;;;;10.13;4.22;;;9.70;99.90;;;;;;4939745;29;20051;-94
2022/04/06 10:01:44;;;;;;;11.82;4.15;;;10.90;99.90;;;;;;4954627;28;20058;-92
2022/04/06 10:04:21;;;;;;;11.93;4.60;;;9.40;99.90;;;;;;4915214;29;20056;-91
2022/04/06 10:07:41;;;;;;;12.40;4.75;;;9.50;99.90;;;;;;4926950;23;20046;-92
2022/04/06 10:10:07;;;;;;;10.87;4.93;;;9.50;99.90;;;;;;5009339;28;20042;-89
2022/04/06 10:12:56;;;;;;;13.07;5.00;;;9.40;99.90;;;;;;4977385;28;20054;-93
2022/04/06 10:15:42;;;;;;;11.32;4.95;;;10.10;99.90;;;;;;4994405;28;20059;-92
2022/04/06 10:18:10;;;;;;;12.15;4.85;;;9.50;99.90;;;;;;4995183;28;20101;-93
2022/04/06 10:21:53;;;;;;;12.40;4.95;;;9.60;99.90;;;;;;4976409;28;20046;-91
2022/04/06 10:28:04;;;;;;;13.05;5.00;;;9.60;99.90;;;;;;4926749;28;20412;-96
2022/04/06 10:30:35;;;;;;;12.20;5.15;;;9.60;99.90;;;;;;4982472;28;20038;-96
2022/04/06 10:33:37;;;;;;;9.90;4.47;;;9.80;99.90;;;;;;5013966;28;20096;-94
2022/04/06 10:36:23;;;;;;;12.05;5.30;;;9.70;99.90;;;;;;4957377;29;20142;-94
2022/04/06 10:39:04;;;;;;;14.10;5.83;;;9.70;99.90;;;;;;4940980;28;20059;-93
2022/04/06 10:41:39;;;;;;;12.75;5.40;;;11.10;99.90;;;;;;4996378;28;20109;-94
2022/04/06 10:44:05;;;;;;;13.70;5.57;;;9.70;99.90;;;;;;5012851;28;20054;-95
2022/04/06 10:46:45;;;;;;;16.00;5.93;;;9.50;99.90;;;;;;4996097;28;20078;-90
2022/04/06 10:49:14;;;;;;;14.75;5.75;;;10.60;99.90;;;;;;4996412;28;20121;-92
2022/04/06 10:51:40;;;;;;;12.65;5.40;;;10.00;99.90;;;;;;4998571;28;20035;-86
2022/04/06 10:54:19;;;;;;;11.90;5.60;;;9.70;99.90;;;;;;4982286;28;20043;-96
2022/04/06 14:06:07;;;;;;;15.15;8.63;;;9.60;99.90;;;;;;4916242;29;20489;-90
2022/04/06 14:09:04;;;;;;;;;;;;;;;;;;;;;
2022/04/06 14:12:45;;;;;;;15.98;9.43;;;9.30;99.90;;;;;;4914998;23;20060;-87
2022/04/06 14:15:36;;;;;;;16.23;8.73;;;9.10;99.90;;;;;;4916754;29;20052;-87
2022/04/06 14:18:06;;;;;;;18.35;8.95;;;10.50;99.90;;;;;;4899093;29;20052;-87
2022/04/06 14:21:24;;;;;;;13.98;8.23;;;9.30;99.90;;;;;;4916486;29;20052;-87
2022/04/06 14:24:07;;;;;;;17.23;9.43;;;9.00;99.90;;;;;;4930248;23;20052;-86
2022/04/06 14:26:44;;;;;;;16.05;8.55;;;9.40;99.90;;;;;;4927380;29;20076;-86
2022/04/06 14:32:56;;;;;;;13.30;8.02;;;8.70;99.90;;;;;;4883708;29;20108;-89
2022/04/06 14:35:33;;;;;;;14.30;7.80;;;10.20;99.90;;;;;;4921159;23;20117;-91
2022/04/06 14:38:03;;;;;;;13.80;7.93;;;8.90;99.90;;;;;;4886464;29;20054;-88
2022/04/06 14:44:21;;;;;;;16.75;8.90;;;9.30;99.90;;;;;;4921527;29;20113;-90
2022/04/06 14:47:11;;;;;;;14.57;8.50;;;9.30;99.90;;;;;;4898833;29;20103;-89
2022/04/06 14:49:37;;;;;;;15.77;8.90;;;9.00;99.90;;;;;;4900282;29;20048;-88
2022/04/06 14:52:05;;;;;;;19.05;9.77;;;9.20;99.90;;;;;;4900184;29;20455;-88
2022/04/06 14:54:43;;;;;;;15.73;8.73;;;9.10;99.90;;;;;;4916804;29;20507;-90
2022/04/06 14:57:43;;;;;;;16.83;8.93;;;9.20;99.90;;;;;;4916390;29;20047;-91
2022/04/06 15:00:12;;;;;;;15.63;8.07;;;8.90;99.90;;;;;;4899439;29;20044;-90
2022/04/06 15:02:50;;;;;;;15.77;9.48;;;8.80;99.90;;;;;;4912953;29;20408;-89
2022/04/06 15:05:29;;;;;;;16.42;8.95;;;8.80;99.90;;;;;;4898525;29;20047;-87
2022/04/06 15:08:03;;;;;;;18.95;8.98;;;9.10;99.90;;;;;;4915262;29;20044;-89
2022/04/06 15:10:41;;;;;;;;;;;9.10;99.90;;;;;;4898679;29;20124;-90
2022/04/06 15:13:16;;;;;;;14.23;8.30;;;9.20;99.90;;;;;;4915528;29;19923;-90
2022/04/06 15:15:50;;;;;;;14.73;8.63;;;9.20;99.90;;;;;;4896618;29;20050;-91
2022/04/06 15:18:26;;;;;;;14.17;8.33;;;9.30;99.90;;;;;;4901440;29;20060;-89
2022/04/06 15:21:35;;;;;;;14.65;8.07;;;9.00;99.90;;;;;;4919633;29;20054;-92
2022/04/06 15:24:10;;;;;;;15.63;8.73;;;9.30;99.90;;;;;;4915429;29;20055;-90
2022/04/06 15:26:48;;;;;;;13.35;8.00;;;9.20;99.90;;;;;;4900099;29;20044;-90
2022/04/06 15:29:14;;;;;;;15.77;8.85;;;9.50;99.90;;;;;;4931546;23;20052;-88
2022/04/06 15:32:38;;;;;;;14.07;7.93;;;9.60;99.90;;;;;;4915833;29;20059;-94
2022/04/06 15:38:09;;;;;;;13.07;7.32;;;9.70;99.90;;;;;;4904657;29;20135;-95
2022/04/06 15:40:43;;;;;;;13.70;7.28;;;10.60;99.90;;;;;;4919314;29;20082;-96
2022/04/06 15:43:10;;;;;;;15.50;7.72;;;9.10;99.90;;;;;;4903863;29;20044;-96
2022/04/06 15:45:41;;;;;;;14.30;7.78;;;9.40;99.90;;;;;;4923441;29;20068;-95
2022/04/06 15:48:07;;;;;;;14.50;7.97;;;9.60;99.90;;;;;;4902618;29;20040;-96
2022/04/06 15:50:39;;;;;;;12.25;7.03;;;9.90;99.90;;;;;;4924447;29;20400;-95
2022/04/06 15:53:26;;;;;;;14.23;7.27;;;9.90;99.90;;;;;;4902984;29;20041;-91
2022/04/06 16:05:47;;;;;;;12.02;7.00;;;9.90;99.90;;;;;;4877019;29;20581;-95
2022/04/06 16:08:28;;;;;;;11.67;6.73;;;9.90;99.90;;;;;;4880090;29;20143;-91
2022/04/06 16:10:59;;;;;;;10.90;6.33;;;9.60;99.90;;;;;;4915585;29;20051;-89
2022/04/06 16:13:46;;;;;;;10.60;6.23;;;9.90;99.90;;;;;;4881059;29;20131;-93
2022/04/06 16:16:37;;;;;;;10.55;6.25;;;10.20;99.90;;;;;;4897086;29;20049;-91
2022/04/06 16:19:06;;;;;;;12.43;7.40;;;9.30;99.90;;;;;;4876885;29;20571;-91
2022/04/06 16:21:54;;;;;;;13.68;8.07;;;10.80;99.90;;;;;;4907610;29;20060;-92
2022/04/06 16:24:26;;;;;;;13.23;6.57;;;9.90;99.90;;;;;;4869767;29;20104;-92
2022/04/06 16:27:16;;;;;;;12.45;6.60;;;10.10;99.90;;;;;;4818031;29;20648;-94
2022/04/06 16:29:51;;;;;;;11.77;6.32;;;9.80;99.90;;;;;;4819587;29;20141;-92
2022/04/06 16:32:43;;;;;;;13.02;7.10;;;10.50;99.90;;;;;;4832842;29;20058;-94
2022/04/06 16:35:08;;;;;;;12.70;7.32;;;9.40;99.90;;;;;;4802078;29;20043;-88
2022/04/06 16:37:34;;;;;;;13.27;7.32;;;9.40;99.90;;;;;;4820462;29;20057;-90
2022/04/06 16:40:09;;;;;;;12.90;7.60;;;9.30;99.90;;;;;;4820770;29;20408;-89
2022/04/06 16:42:35;;;;;;;12.35;6.72;;;9.50;99.90;;;;;;4820773;29;20061;-91
2022/04/06 16:45:01;;;;;;;11.93;6.97;;;9.30;99.90;;;;;;4821212;29;20058;-86
2022/04/06 16:47:48;;;;;;;11.30;6.30;;;9.30;99.90;;;;;;4817422;29;20399;-91
2022/04/06 16:53:21;;;;;;;12.33;7.20;;;9.50;99.90;;;;;;4821939;29;20061;-89
2022/04/06 16:55:47;;;;;;;11.73;6.27;;;9.30;99.90;;;;;;4876863;23;20052;-92
2022/04/06 16:58:25;;;;;;;11.47;5.30;;;9.20;99.90;;;;;;4918416;29;20051;-90
2022/04/06 17:00:54;;;;;;;9.63;5.00;;;9.20;99.90;;;;;;4918093;29;20545;-89
2022/04/06 17:03:21;;;;;;;10.23;4.97;;;9.90;99.90;;;;;;4917445;29;20038;-90
2022/04/06 17:05:50;;;;;;;11.65;5.18;;;9.30;99.90;;;;;;4901027;29;20314;-88
2022/04/06 17:08:19;;;;;;;8.98;4.70;;;9.80;99.90;;;;;;4900923;29;20560;-88
2022/04/06 17:10:50;;;;;;;9.85;4.53;;;9.30;99.90;;;;;;4917315;29;20044;-88
2022/04/06 17:13:25;;;;;;;8.63;3.70;;;10.30;99.90;;;;;;4916093;29;20055;-89
2022/04/06 17:15:53;;;;;;;10.37;3.50;;;9.10;99.90;;;;;;4916476;29;20044;-89
2022/04/06 17:18:19;;;;;;;7.90;2.80;;;9.70;99.90;;;;;;4900814;29;20496;-90
2022/04/06 17:20:54;;;;;;;8.43;2.87;;;9.10;99.90;;;;;;4917150;29;20048;-89
2022/04/06 17:23:20;;;;;;;8.10;2.90;;;9.70;99.90;;;;;;4916296;29;20047;-89
2022/04/06 17:26:15;;;;;;;7.47;2.80;;;9.10;99.90;;;;;;4901031;29;20056;-91
2022/04/06 17:29:07;;;;;;;7.50;2.80;;;9.10;99.90;;;;;;4919207;29;20048;-91
2022/04/06 17:31:44;;;;;;;6.68;2.55;;;9.30;99.90;;;;;;4899939;29;20451;-91
2022/04/06 17:34:19;;;;;;;6.27;2.00;;;8.80;99.90;;;;;;4894847;23;20075;-90
2022/04/06 17:36:54;;;;;;;6.23;2.20;;;9.10;99.90;;;;;;4881253;29;20444;-92
2022/04/06 17:39:34;;;;;;;7.30;2.27;;;9.50;99.90;;;;;;4880812;29;20048;-90
2022/04/06 17:42:12;;;;;;;6.50;2.17;;;8.80;99.90;;;;;;4880356;29;20048;-89
2022/04/06 17:44:47;;;;;;;6.73;2.33;;;8.80;99.90;;;;;;4878990;29;20557;-89
2022/04/06 17:47:17;;;;;;;7.53;2.43;;;9.10;99.90;;;;;;4879747;29;20077;-90
2022/04/06 17:49:57;;;;;;;7.07;2.80;;;9.30;99.90;;;;;;4879628;29;20516;-92
2022/04/06 17:52:23;;;;;;;7.77;3.20;;;8.40;99.90;;;;;;4880614;29;20056;-90
2022/04/06 17:54:48;;;;;;;8.40;3.60;;;9.90;99.90;;;;;;4878512;29;20068;-90
2022/04/06 17:57:27;;;;;;;8.80;4.10;;;8.60;99.90;;;;;;4894436;29;20421;-91
2022/04/06 17:59:55;;;;;;;8.23;3.40;;;9.20;99.90;;;;;;4878778;29;20053;-89
2022/04/06 18:02:24;;;;;;;8.00;3.30;;;9.20;99.90;;;;;;4880424;29;20048;-89
2022/04/06 18:04:53;;;;;;;8.93;3.30;;;7.70;99.90;;;;;;4887648;23;20409;-90
2022/04/06 18:07:21;;;;;;;10.17;3.97;;;9.20;99.90;;;;;;4905203;23;20108;-90
2022/04/06 18:09:50;;;;;;;10.02;4.70;;;10.30;99.90;;;;;;4900119;29;20044;-89
2022/04/06 18:15:16;;;;;;;10.77;5.60;;;9.90;99.90;;;;;;4898662;29;20060;-86
2022/04/06 18:17:41;;;;;;;11.20;6.20;;;8.90;99.90;;;;;;4881413;29;20055;-86
2022/04/06 18:20:08;;;;;;;13.37;6.70;;;8.90;99.90;;;;;;4897682;29;20052;-85
2022/04/06 18:22:33;;;;;;;12.73;6.50;;;9.00;99.90;;;;;;4882104;29;20052;-88
2022/04/06 18:24:59;;;;;;;12.13;6.67;;;9.30;99.90;;;;;;4881048;29;20053;-86